Pagina principale
METAR-TAF:

METAR-TAF

Aeroporti :

Aeroporto di Firenze-Peretola

Firenze, Italia

latitudine: 43-48N, longitudine: 011-12E, altezza: 40 m

Osservazione

Il bollettino è stato emesso 55 minuti fa, alle 01:50 UTC
Vento 2 kt da direzioni variabili
Temperature 22°C
Umidità 83%
Pressione 1018 hPa
Visibilità 10 km o più
nessuna nube inferiore a 1500 m e nessun cumulonembo

METAR: LIRQ 240150Z VRB02KT CAVOK 22/19 Q1018

Ora: 04:45 (02:45 UTC)

Previsione

Il bollettino è stato emesso 3 ore e 45 minuti fa, alle 23:00 UTC
Previsione valida dal 24 alle 00 UTC al 24 alle 24 UTC
Vento 4 kt da direzioni variabili
Visibilità 10 km o più
Nubi sparse ad un'altezza di 3000 ft
Temporaneamente
dal 24 alle 03 UTC al 24 alle 12 UTC
pioggia
Temporaneamente
dal 24 alle 12 UTC al 24 alle 18 UTC
Visibilità: 3000 m
temporale, pioggia

TAF: LIRQ 232300Z 2400/2424 VRB04KT 9999 SCT030 TEMPO 2403/2412 RA TEMPO 2412/2418 3000 TSRA

Osservazioni e previsioni meteorologiche di più di 4000 aeroporti (messaggi METAR e TAF).

Le stazioni disponibili sono rappresentate dai dischi gialli e rossi sulla carta.

Puntare il mouse per vedere il nome della stazione.

Clicca sopra per visualizzare le osservazioni e previsioni meteorologiche.

Per cambiare la mappa : fare clic sui pulsanti verdi con una croce nera per ingrandire, il pulsante verde con un trattino per diminuire, o sulla freccia verde per le mappe adiacenti.


METAR-TAF: